Time;durP1;ratioP1;P1;durP2;ratioP2;P2;SDS_P1;SDS_P2;PMS_P1;PMS_P2;Temp;Humidity;BMP_temperature;BMP_pressure;BME280_temperature;BME280_humidity;BME280_pressure;Samples;Min_cycle;Max_cycle;Signal;HPM_P1;HPM_P2
2023/09/16 00:00:35;;;;;;;10.57;7.10;;;;;;;;;;5050675;28;20293;-54
2023/09/16 00:03:01;;;;;;;9.38;7.00;;;;;;;;;;5047671;28;20025;-58
2023/09/16 00:05:27;;;;;;;9.45;6.68;;;;;;;;;;5049837;28;20116;-58
2023/09/16 00:07:53;;;;;;;10.55;7.20;;;;;;;;;;5048967;28;20113;-57
2023/09/16 00:10:21;;;;;;;10.30;7.22;;;;;;;;;;5047639;28;20025;-57
2023/09/16 00:12:46;;;;;;;9.68;6.70;;;;;;;;;;5048701;28;20025;-57
2023/09/16 00:15:12;;;;;;;10.98;7.50;;;;;;;;;;5046783;28;20033;-57
2023/09/16 00:17:37;;;;;;;11.65;7.30;;;;;;;;;;5033594;28;20142;-57
2023/09/16 00:20:09;;;;;;;12.82;7.85;;;;;;;;;;5034534;28;20040;-57
2023/09/16 00:22:36;;;;;;;12.07;7.47;;;;;;;;;;5038098;28;20481;-57
2023/09/16 00:25:01;;;;;;;10.65;7.43;;;;;;;;;;5054125;28;20044;-58
2023/09/16 00:27:27;;;;;;;11.07;7.43;;;;;;;;;;5052375;28;20029;-58
2023/09/16 00:29:52;;;;;;;11.02;7.50;;;;;;;;;;5051112;28;20459;-55
2023/09/16 00:32:17;;;;;;;11.35;7.07;;;;;;;;;;5048924;28;20439;-57
2023/09/16 00:34:43;;;;;;;9.63;6.97;;;;;;;;;;5053738;28;20025;-57
2023/09/16 00:37:08;;;;;;;11.85;7.38;;;;;;;;;;5053184;28;20106;-57
2023/09/16 00:39:34;;;;;;;11.50;7.05;;;;;;;;;;5038979;28;20896;-57
2023/09/16 00:41:59;;;;;;;11.63;7.10;;;;;;;;;;5042365;28;20033;-57
2023/09/16 00:44:25;;;;;;;9.90;6.80;;;;;;;;;;5052365;28;20028;-57
2023/09/16 00:46:50;;;;;;;14.23;7.55;;;;;;;;;;5049323;28;20381;-57
2023/09/16 00:49:15;;;;;;;11.77;7.60;;;;;;;;;;5045770;28;20371;-56
2023/09/16 00:51:44;;;;;;;12.65;7.07;;;;;;;;;;5050381;28;20067;-56
2023/09/16 00:54:10;;;;;;;11.77;7.25;;;;;;;;;;5043982;28;20036;-57
2023/09/16 00:56:36;;;;;;;10.98;7.18;;;;;;;;;;5052696;28;20112;-57
2023/09/16 00:59:02;;;;;;;12.32;7.43;;;;;;;;;;5035750;28;20053;-57
2023/09/16 01:01:29;;;;;;;10.40;7.32;;;;;;;;;;5043789;28;20037;-57
2023/09/16 01:03:56;;;;;;;15.85;7.78;;;;;;;;;;5036234;28;20060;-60
2023/09/16 01:06:22;;;;;;;10.48;7.47;;;;;;;;;;5045875;28;20115;-57
2023/09/16 01:08:47;;;;;;;10.23;7.38;;;;;;;;;;5047043;28;20116;-56
2023/09/16 01:11:13;;;;;;;10.90;7.38;;;;;;;;;;5040782;28;20366;-59
2023/09/16 01:13:39;;;;;;;10.02;7.32;;;;;;;;;;5045630;28;20025;-58
2023/09/16 01:16:21;;;;;;;11.30;7.60;;;;;;;;;;5049370;28;20045;-59
2023/09/16 01:18:57;;;;;;;10.65;7.43;;;;;;;;;;5052427;28;20533;-58
2023/09/16 01:21:23;;;;;;;11.50;7.10;;;;;;;;;;5049921;28;20119;-58
2023/09/16 01:24:08;;;;;;;9.52;6.78;;;;;;;;;;5051548;28;20120;-57
2023/09/16 01:26:34;;;;;;;9.45;6.90;;;;;;;;;;5051446;28;20040;-57
2023/09/16 01:28:59;;;;;;;10.10;7.13;;;;;;;;;;5046257;28;20021;-57
2023/09/16 01:31:25;;;;;;;11.20;7.47;;;;;;;;;;5046689;28;20461;-56
2023/09/16 01:33:52;;;;;;;10.85;7.32;;;;;;;;;;5034800;28;20492;-57
2023/09/16 01:36:20;;;;;;;11.45;7.10;;;;;;;;;;5033152;28;20059;-58
2023/09/16 01:38:51;;;;;;;13.25;7.15;;;;;;;;;;5046338;28;20043;-58
2023/09/16 01:41:19;;;;;;;9.85;6.97;;;;;;;;;;5049609;28;20533;-58
2023/09/16 01:43:45;;;;;;;11.43;7.13;;;;;;;;;;5051646;28;20033;-57
2023/09/16 01:46:10;;;;;;;10.73;7.30;;;;;;;;;;5050710;28;20024;-58
2023/09/16 01:48:36;;;;;;;11.20;7.07;;;;;;;;;;5050652;28;20033;-58
2023/09/16 01:51:02;;;;;;;11.02;7.30;;;;;;;;;;5043330;28;20059;-59
2023/09/16 01:53:27;;;;;;;10.13;6.80;;;;;;;;;;5050981;28;20033;-58
2023/09/16 01:55:53;;;;;;;9.82;6.55;;;;;;;;;;5052733;28;20032;-56
2023/09/16 01:58:18;;;;;;;11.38;7.10;;;;;;;;;;5051602;28;20065;-58
2023/09/16 02:00:43;;;;;;;9.32;6.80;;;;;;;;;;5047135;28;20112;-59
2023/09/16 02:03:09;;;;;;;11.52;6.68;;;;;;;;;;5034844;28;20112;-59
2023/09/16 02:05:34;;;;;;;9.50;6.43;;;;;;;;;;5031680;28;20037;-59
2023/09/16 02:08:00;;;;;;;9.98;7.07;;;;;;;;;;5032603;28;20041;-59
2023/09/16 02:10:25;;;;;;;10.70;6.53;;;;;;;;;;5031655;28;20114;-58
2023/09/16 02:12:51;;;;;;;9.82;6.53;;;;;;;;;;5046819;28;20427;-58
2023/09/16 02:15:17;;;;;;;9.80;6.97;;;;;;;;;;5048388;28;20037;-58
2023/09/16 02:17:42;;;;;;;10.15;6.95;;;;;;;;;;5049921;28;20044;-59
2023/09/16 02:20:10;;;;;;;11.98;6.80;;;;;;;;;;5051882;28;20103;-57
2023/09/16 02:22:35;;;;;;;9.93;6.82;;;;;;;;;;5039491;28;20034;-58
2023/09/16 02:25:01;;;;;;;8.98;6.70;;;;;;;;;;5052064;28;20032;-57
2023/09/16 02:27:28;;;;;;;11.50;7.00;;;;;;;;;;5047990;28;20036;-57
2023/09/16 02:29:54;;;;;;;11.02;6.70;;;;;;;;;;5035836;28;20025;-57
2023/09/16 02:32:19;;;;;;;9.60;6.75;;;;;;;;;;5049298;28;20033;-57
2023/09/16 02:34:44;;;;;;;10.70;6.95;;;;;;;;;;5037341;28;20734;-58
2023/09/16 02:37:10;;;;;;;10.85;6.80;;;;;;;;;;5051625;28;20082;-55
2023/09/16 02:39:35;;;;;;;11.30;6.65;;;;;;;;;;5051045;28;20060;-57
2023/09/16 02:42:00;;;;;;;10.05;6.60;;;;;;;;;;5041917;28;20366;-60
2023/09/16 02:44:29;;;;;;;10.82;7.00;;;;;;;;;;5030720;28;20489;-57
2023/09/16 02:46:54;;;;;;;12.25;7.00;;;;;;;;;;5046153;28;20040;-58
2023/09/16 02:49:19;;;;;;;11.15;6.60;;;;;;;;;;5050216;28;20116;-58
2023/09/16 02:51:45;;;;;;;10.90;6.82;;;;;;;;;;5048473;28;20282;-57
2023/09/16 02:54:10;;;;;;;10.15;6.43;;;;;;;;;;5051571;28;20164;-59
2023/09/16 02:56:36;;;;;;;10.88;6.80;;;;;;;;;;5049444;28;20166;-58
2023/09/16 02:59:01;;;;;;;14.45;6.45;;;;;;;;;;5047502;28;20040;-58
2023/09/16 03:01:26;;;;;;;8.52;6.68;;;;;;;;;;5035213;28;20130;-59
2023/09/16 03:03:52;;;;;;;10.98;7.20;;;;;;;;;;5048714;28;20060;-56
2023/09/16 03:06:17;;;;;;;10.85;7.25;;;;;;;;;;5044903;28;20496;-58
2023/09/16 03:08:43;;;;;;;9.98;6.82;;;;;;;;;;5049763;28;20931;-57
2023/09/16 03:11:08;;;;;;;10.00;7.03;;;;;;;;;;5049882;28;20025;-59
2023/09/16 03:13:34;;;;;;;10.98;6.95;;;;;;;;;;5039941;28;20029;-59
2023/09/16 03:16:11;;;;;;;11.93;6.95;;;;;;;;;;5040891;28;20051;-58
2023/09/16 03:18:36;;;;;;;9.93;6.88;;;;;;;;;;5046961;28;20378;-58
2023/09/16 03:21:02;;;;;;;11.05;6.90;;;;;;;;;;5046404;28;20211;-58
2023/09/16 03:23:28;;;;;;;12.63;7.10;;;;;;;;;;5038628;28;20056;-58
2023/09/16 03:25:53;;;;;;;11.07;6.93;;;;;;;;;;5049412;28;20103;-57
2023/09/16 03:28:18;;;;;;;9.77;7.03;;;;;;;;;;5047076;28;20090;-58
2023/09/16 03:30:44;;;;;;;8.95;6.65;;;;;;;;;;5049200;28;20228;-58
2023/09/16 03:33:09;;;;;;;9.65;7.03;;;;;;;;;;5043159;28;20092;-58
2023/09/16 03:35:36;;;;;;;10.32;7.00;;;;;;;;;;5039847;28;20470;-58
2023/09/16 03:38:01;;;;;;;9.38;7.07;;;;;;;;;;5049126;28;20036;-59
2023/09/16 03:40:27;;;;;;;11.18;7.40;;;;;;;;;;5050975;28;20028;-59
2023/09/16 03:42:54;;;;;;;12.10;7.30;;;;;;;;;;5048179;28;20040;-57
2023/09/16 03:45:20;;;;;;;10.02;6.97;;;;;;;;;;5046236;28;20388;-58
2023/09/16 03:47:45;;;;;;;11.25;7.40;;;;;;;;;;5039062;28;20136;-58
2023/09/16 03:50:10;;;;;;;12.15;7.40;;;;;;;;;;5044829;28;20037;-57
2023/09/16 03:52:36;;;;;;;11.30;7.22;;;;;;;;;;5040879;28;20458;-58
2023/09/16 03:55:02;;;;;;;11.95;7.15;;;;;;;;;;5046823;28;20122;-58
2023/09/16 03:57:28;;;;;;;11.73;7.13;;;;;;;;;;5044680;28;20033;-59
2023/09/16 03:59:53;;;;;;;12.57;7.63;;;;;;;;;;5049774;28;20116;-58
2023/09/16 04:02:19;;;;;;;16.48;7.43;;;;;;;;;;5047021;28;20034;-58
2023/09/16 04:04:47;;;;;;;10.73;6.85;;;;;;;;;;5036024;28;20021;-58
2023/09/16 04:07:12;;;;;;;9.52;7.18;;;;;;;;;;5050304;28;20025;-58
2023/09/16 04:09:37;;;;;;;10.27;7.70;;;;;;;;;;5043780;28;20036;-58
2023/09/16 04:12:03;;;;;;;12.57;7.32;;;;;;;;;;5034911;28;20437;-58
2023/09/16 04:14:29;;;;;;;13.27;7.40;;;;;;;;;;5036009;28;20041;-58
2023/09/16 04:16:54;;;;;;;10.65;7.13;;;;;;;;;;5053532;28;20048;-58
2023/09/16 04:19:19;;;;;;;9.40;6.75;;;;;;;;;;5054394;28;20060;-58
2023/09/16 04:21:50;;;;;;;8.52;5.78;;;;;;;;;;5051603;28;20040;-58
2023/09/16 04:24:15;;;;;;;8.15;6.30;;;;;;;;;;5052746;28;20037;-58
2023/09/16 04:26:40;;;;;;;9.07;6.07;;;;;;;;;;5048611;28;20055;-57
2023/09/16 04:29:06;;;;;;;9.43;6.32;;;;;;;;;;5053964;28;20486;-58
2023/09/16 04:31:31;;;;;;;8.07;5.82;;;;;;;;;;5053940;28;20094;-58
2023/09/16 04:33:56;;;;;;;8.10;5.90;;;;;;;;;;5053919;28;20078;-57
2023/09/16 04:36:25;;;;;;;8.05;5.68;;;;;;;;;;5051406;28;20090;-58
2023/09/16 04:38:50;;;;;;;9.80;6.32;;;;;;;;;;5053236;28;20028;-56
2023/09/16 04:41:15;;;;;;;8.60;5.90;;;;;;;;;;5054489;28;20033;-58
2023/09/16 04:43:43;;;;;;;9.50;6.50;;;;;;;;;;5051419;28;20044;-58
2023/09/16 04:46:08;;;;;;;7.82;5.90;;;;;;;;;;5039984;28;20373;-57
2023/09/16 04:48:34;;;;;;;9.30;6.18;;;;;;;;;;5033021;28;20407;-58
2023/09/16 04:50:59;;;;;;;8.95;5.93;;;;;;;;;;5040185;28;20036;-58
2023/09/16 04:53:25;;;;;;;7.50;5.80;;;;;;;;;;5053774;28;20040;-58
2023/09/16 04:56:01;;;;;;;10.25;6.28;;;;;;;;;;5050435;28;20040;-57
2023/09/16 04:58:27;;;;;;;13.80;6.43;;;;;;;;;;5053996;28;20033;-57
2023/09/16 05:00:52;;;;;;;10.15;6.40;;;;;;;;;;5046053;28;20041;-57
2023/09/16 05:03:18;;;;;;;9.43;5.82;;;;;;;;;;5047858;28;20052;-58
2023/09/16 05:05:46;;;;;;;8.65;5.72;;;;;;;;;;5049404;28;20037;-57
2023/09/16 05:08:11;;;;;;;10.18;6.50;;;;;;;;;;5053387;28;20107;-58
2023/09/16 05:10:37;;;;;;;10.30;5.78;;;;;;;;;;5052527;28;20537;-58
2023/09/16 05:13:03;;;;;;;10.50;6.90;;;;;;;;;;5053464;28;20116;-58
2023/09/16 05:15:28;;;;;;;9.43;6.20;;;;;;;;;;5053483;28;20025;-59
2023/09/16 05:17:54;;;;;;;9.13;6.07;;;;;;;;;;5050556;28;20063;-57
2023/09/16 05:20:19;;;;;;;8.75;6.05;;;;;;;;;;5053391;28;20025;-59
2023/09/16 05:22:48;;;;;;;7.85;6.35;;;;;;;;;;5052420;28;20040;-61
2023/09/16 05:25:14;;;;;;;8.85;6.25;;;;;;;;;;5053022;28;20032;-60
2023/09/16 05:27:39;;;;;;;8.18;6.35;;;;;;;;;;5052119;28;20033;-60
2023/09/16 05:30:05;;;;;;;9.45;6.25;;;;;;;;;;5052661;28;20109;-60
2023/09/16 05:32:31;;;;;;;12.65;6.35;;;;;;;;;;5053457;28;20029;-60
2023/09/16 05:34:56;;;;;;;8.75;6.30;;;;;;;;;;5051360;28;20397;-59
2023/09/16 05:37:22;;;;;;;9.00;6.70;;;;;;;;;;5051848;28;20102;-59
2023/09/16 05:39:47;;;;;;;9.02;6.13;;;;;;;;;;5051138;28;20028;-59
2023/09/16 05:42:13;;;;;;;8.70;6.22;;;;;;;;;;5049590;28;20029;-59
2023/09/16 05:44:39;;;;;;;9.50;6.63;;;;;;;;;;5052383;28;20462;-59
2023/09/16 05:47:05;;;;;;;10.43;6.20;;;;;;;;;;5052956;28;20033;-59
2023/09/16 05:49:30;;;;;;;9.70;6.07;;;;;;;;;;5051737;28;20170;-60
2023/09/16 05:51:56;;;;;;;9.38;6.60;;;;;;;;;;5049022;28;20048;-60
2023/09/16 05:54:21;;;;;;;9.73;6.38;;;;;;;;;;5043196;28;20064;-59
2023/09/16 05:56:46;;;;;;;13.75;7.00;;;;;;;;;;5052038;28;20036;-59
2023/09/16 05:59:14;;;;;;;9.43;6.78;;;;;;;;;;5052543;28;20074;-59
2023/09/16 06:01:39;;;;;;;8.68;6.35;;;;;;;;;;5049101;28;20060;-61
2023/09/16 06:04:05;;;;;;;10.68;6.90;;;;;;;;;;5051941;28;20056;-59
2023/09/16 06:06:30;;;;;;;13.68;6.80;;;;;;;;;;5052497;28;20028;-59
2023/09/16 06:08:56;;;;;;;9.52;6.97;;;;;;;;;;5051485;28;20056;-60
2023/09/16 06:11:26;;;;;;;8.57;6.13;;;;;;;;;;5052441;28;20036;-59
2023/09/16 06:13:52;;;;;;;9.45;6.50;;;;;;;;;;5046275;28;20151;-59
2023/09/16 06:16:17;;;;;;;9.45;6.90;;;;;;;;;;5051296;28;20044;-59
2023/09/16 06:18:42;;;;;;;10.05;7.20;;;;;;;;;;5049889;28;20052;-59
2023/09/16 06:21:08;;;;;;;9.48;6.28;;;;;;;;;;5032234;28;20036;-59
2023/09/16 06:23:34;;;;;;;9.57;6.93;;;;;;;;;;5046009;28;20037;-61
2023/09/16 06:25:59;;;;;;;8.70;6.63;;;;;;;;;;5049597;28;20433;-59
2023/09/16 06:28:24;;;;;;;11.32;6.50;;;;;;;;;;5050237;28;20021;-59
2023/09/16 06:30:50;;;;;;;9.15;6.70;;;;;;;;;;5047073;28;20033;-59
2023/09/16 06:33:15;;;;;;;8.38;6.13;;;;;;;;;;5041323;28;20469;-60
2023/09/16 06:35:41;;;;;;;8.60;6.22;;;;;;;;;;5050907;28;20087;-60
2023/09/16 06:38:06;;;;;;;10.63;6.80;;;;;;;;;;5050048;28;20033;-60
2023/09/16 06:40:31;;;;;;;9.35;6.80;;;;;;;;;;5052097;28;20029;-61
2023/09/16 06:42:57;;;;;;;12.45;7.13;;;;;;;;;;5047598;28;20094;-61
2023/09/16 06:45:22;;;;;;;9.02;6.50;;;;;;;;;;5051679;28;20029;-61
2023/09/16 06:47:48;;;;;;;8.70;6.50;;;;;;;;;;5049469;28;21439;-61
2023/09/16 06:50:13;;;;;;;8.60;6.13;;;;;;;;;;5045660;28;20025;-60
2023/09/16 06:52:39;;;;;;;8.48;6.40;;;;;;;;;;5051138;28;20033;-61
2023/09/16 06:55:05;;;;;;;10.40;7.18;;;;;;;;;;5050267;28;20083;-60
2023/09/16 06:57:31;;;;;;;9.73;6.57;;;;;;;;;;5050878;28;20037;-60
2023/09/16 06:59:56;;;;;;;11.35;6.70;;;;;;;;;;5050938;28;20033;-57
2023/09/16 07:02:22;;;;;;;10.85;7.10;;;;;;;;;;5049758;28;20238;-59
2023/09/16 07:04:49;;;;;;;10.32;6.95;;;;;;;;;;5050421;28;20107;-62
2023/09/16 07:07:14;;;;;;;10.52;6.43;;;;;;;;;;5040850;28;20441;-59
2023/09/16 07:09:40;;;;;;;9.93;6.72;;;;;;;;;;5041943;28;20040;-59
2023/09/16 07:12:06;;;;;;;8.57;6.38;;;;;;;;;;5051430;28;20027;-59
2023/09/16 07:14:38;;;;;;;9.75;6.43;;;;;;;;;;5051196;28;20091;-59
2023/09/16 07:17:04;;;;;;;8.70;6.32;;;;;;;;;;5049279;28;20060;-59
2023/09/16 07:19:30;;;;;;;8.75;6.32;;;;;;;;;;5051131;28;20028;-59
2023/09/16 07:21:56;;;;;;;7.20;6.05;;;;;;;;;;5048910;28;20374;-59
2023/09/16 07:24:21;;;;;;;10.20;6.07;;;;;;;;;;5041241;28;20075;-58
2023/09/16 07:26:46;;;;;;;7.38;5.63;;;;;;;;;;5048811;28;20052;-59
2023/09/16 07:29:12;;;;;;;8.50;6.10;;;;;;;;;;5050849;28;20028;-57
2023/09/16 07:31:37;;;;;;;10.18;6.05;;;;;;;;;;5053384;28;20040;-61
2023/09/16 07:34:02;;;;;;;8.52;5.78;;;;;;;;;;5051706;28;20037;-62
2023/09/16 07:36:28;;;;;;;7.22;5.60;;;;;;;;;;5038033;28;20025;-61
2023/09/16 07:38:53;;;;;;;8.35;5.60;;;;;;;;;;5034647;28;20490;-60
2023/09/16 07:41:19;;;;;;;7.07;5.75;;;;;;;;;;5054792;28;20029;-61
2023/09/16 07:43:44;;;;;;;8.73;5.55;;;;;;;;;;5054208;28;20147;-59
2023/09/16 07:46:10;;;;;;;10.18;5.70;;;;;;;;;;5054975;28;20108;-60
2023/09/16 07:48:35;;;;;;;8.80;5.78;;;;;;;;;;5052291;28;20032;-59
2023/09/16 07:51:00;;;;;;;7.82;6.03;;;;;;;;;;5054143;28;20021;-59
2023/09/16 07:53:26;;;;;;;7.78;5.70;;;;;;;;;;5054801;28;20506;-59
2023/09/16 07:55:51;;;;;;;6.88;5.18;;;;;;;;;;5053841;28;20033;-59
2023/09/16 07:58:17;;;;;;;7.97;5.63;;;;;;;;;;5054540;28;20120;-60
2023/09/16 08:00:43;;;;;;;8.70;5.85;;;;;;;;;;5053703;28;20112;-60
2023/09/16 08:03:08;;;;;;;10.95;5.57;;;;;;;;;;5054313;28;20053;-60
2023/09/16 08:05:34;;;;;;;6.30;5.03;;;;;;;;;;5054861;28;20484;-61
2023/09/16 08:07:59;;;;;;;7.60;5.30;;;;;;;;;;5047875;28;20056;-60
2023/09/16 08:10:24;;;;;;;7.72;5.38;;;;;;;;;;5053160;28;20564;-59
2023/09/16 08:12:50;;;;;;;9.23;5.10;;;;;;;;;;5052249;28;20108;-59
2023/09/16 08:15:15;;;;;;;6.50;5.03;;;;;;;;;;5051508;28;20454;-59
2023/09/16 08:17:40;;;;;;;7.57;5.30;;;;;;;;;;5053931;28;20095;-60
2023/09/16 08:20:07;;;;;;;7.80;5.45;;;;;;;;;;5054005;28;20066;-60
2023/09/16 08:22:33;;;;;;;9.02;4.93;;;;;;;;;;5054481;28;20040;-59
2023/09/16 08:24:58;;;;;;;6.97;4.78;;;;;;;;;;5052941;28;20033;-60
2023/09/16 08:27:25;;;;;;;6.30;4.75;;;;;;;;;;5035039;28;20026;-60
2023/09/16 08:29:52;;;;;;;6.53;5.05;;;;;;;;;;5052786;28;20068;-59
2023/09/16 08:32:18;;;;;;;7.10;5.10;;;;;;;;;;5053221;28;20057;-59
2023/09/16 08:34:43;;;;;;;6.70;5.28;;;;;;;;;;5053897;28;20167;-60
2023/09/16 08:37:11;;;;;;;8.05;5.50;;;;;;;;;;5051488;28;20029;-59
2023/09/16 08:39:37;;;;;;;7.70;5.03;;;;;;;;;;5052179;28;20029;-59
2023/09/16 08:42:09;;;;;;;8.65;5.15;;;;;;;;;;5047167;28;20110;-59
2023/09/16 08:44:37;;;;;;;7.28;5.10;;;;;;;;;;5054133;28;20032;-59
2023/09/16 08:47:25;;;;;;;7.20;5.00;;;;;;;;;;5048506;28;20029;-59
2023/09/16 08:49:55;;;;;;;6.68;5.10;;;;;;;;;;5045923;28;20083;-59
2023/09/16 08:52:21;;;;;;;7.13;5.22;;;;;;;;;;5052701;28;20112;-59
2023/09/16 08:54:48;;;;;;;7.35;5.07;;;;;;;;;;5047544;28;20045;-59
2023/09/16 08:57:14;;;;;;;6.38;4.78;;;;;;;;;;5053483;28;20375;-59
2023/09/16 08:59:40;;;;;;;9.88;5.80;;;;;;;;;;5053555;28;20041;-60
2023/09/16 09:02:08;;;;;;;8.13;5.45;;;;;;;;;;5051417;28;20589;-59
2023/09/16 09:04:34;;;;;;;7.25;5.07;;;;;;;;;;5052770;28;20040;-60
2023/09/16 09:07:01;;;;;;;6.38;4.80;;;;;;;;;;5051763;28;20032;-60
2023/09/16 09:09:26;;;;;;;6.65;4.50;;;;;;;;;;5053418;28;20037;-60
2023/09/16 09:11:55;;;;;;;7.00;4.38;;;;;;;;;;5052880;28;20032;-60
2023/09/16 09:14:22;;;;;;;5.20;4.15;;;;;;;;;;5053326;28;20040;-59
2023/09/16 09:16:48;;;;;;;4.88;3.95;;;;;;;;;;5050897;28;20685;-60
2023/09/16 09:19:15;;;;;;;8.05;4.07;;;;;;;;;;5053441;28;20037;-59
2023/09/16 09:21:42;;;;;;;6.53;4.00;;;;;;;;;;5051085;28;20078;-59
2023/09/16 09:24:07;;;;;;;6.45;4.30;;;;;;;;;;5048614;28;20032;-60
2023/09/16 09:26:34;;;;;;;5.90;4.05;;;;;;;;;;5044354;28;20039;-60
2023/09/16 09:28:59;;;;;;;5.47;4.43;;;;;;;;;;5048583;28;20037;-60
2023/09/16 09:31:26;;;;;;;6.07;4.40;;;;;;;;;;5063404;28;20037;-60
2023/09/16 09:33:53;;;;;;;7.50;4.30;;;;;;;;;;5052459;28;20033;-60
2023/09/16 09:36:18;;;;;;;7.57;4.78;;;;;;;;;;5053233;28;20113;-59
2023/09/16 09:38:45;;;;;;;7.68;4.80;;;;;;;;;;5051191;28;20115;-58
2023/09/16 09:41:12;;;;;;;6.57;4.93;;;;;;;;;;5052429;28;20469;-60
2023/09/16 09:43:38;;;;;;;6.78;4.40;;;;;;;;;;5052359;28;20029;-60
2023/09/16 09:46:04;;;;;;;7.47;4.50;;;;;;;;;;5051109;28;20052;-60
2023/09/16 09:48:35;;;;;;;7.72;6.20;;;;;;;;;;5050899;28;20040;-60
2023/09/16 09:51:01;;;;;;;7.53;5.70;;;;;;;;;;5042374;28;20120;-60
2023/09/16 09:53:26;;;;;;;9.30;5.63;;;;;;;;;;5032986;28;20125;-59
2023/09/16 09:55:55;;;;;;;6.95;5.78;;;;;;;;;;5048583;28;20409;-58
2023/09/16 09:58:20;;;;;;;9.68;6.07;;;;;;;;;;5047162;28;20033;-59
2023/09/16 10:00:50;;;;;;;8.55;6.15;;;;;;;;;;5032514;28;20021;-60
2023/09/16 10:03:21;;;;;;;9.63;5.50;;;;;;;;;;5032436;28;20034;-60
2023/09/16 10:05:46;;;;;;;10.18;6.32;;;;;;;;;;5048845;28;20266;-60
2023/09/16 10:08:13;;;;;;;10.02;6.45;;;;;;;;;;5038049;28;20051;-60
2023/09/16 10:10:40;;;;;;;9.20;7.30;;;;;;;;;;5052815;28;20029;-60
2023/09/16 10:13:06;;;;;;;7.45;6.35;;;;;;;;;;5051307;28;20032;-60
2023/09/16 10:15:34;;;;;;;6.88;5.75;;;;;;;;;;5050795;28;20111;-60
2023/09/16 10:18:01;;;;;;;9.60;6.75;;;;;;;;;;5032278;28;20439;-60
2023/09/16 10:20:34;;;;;;;11.63;6.60;;;;;;;;;;5031182;28;20356;-60
2023/09/16 10:23:00;;;;;;;10.80;6.68;;;;;;;;;;5030323;28;20037;-60
2023/09/16 10:25:28;;;;;;;10.05;7.85;;;;;;;;;;5043502;28;20029;-60
2023/09/16 10:28:01;;;;;;;10.45;7.35;;;;;;;;;;5050789;28;20056;-60
2023/09/16 10:30:27;;;;;;;8.40;5.97;;;;;;;;;;5033807;28;20026;-61
2023/09/16 10:32:53;;;;;;;9.18;6.68;;;;;;;;;;5051270;28;20048;-60
2023/09/16 10:35:21;;;;;;;9.57;6.45;;;;;;;;;;5050999;28;20365;-60
2023/09/16 10:37:52;;;;;;;8.27;5.82;;;;;;;;;;5051822;28;20037;-60
2023/09/16 10:40:19;;;;;;;9.07;6.18;;;;;;;;;;5050805;28;20045;-60
2023/09/16 10:42:45;;;;;;;13.07;6.70;;;;;;;;;;5050497;28;20025;-60
2023/09/16 10:45:12;;;;;;;9.02;6.32;;;;;;;;;;5049642;28;20025;-60
2023/09/16 10:47:38;;;;;;;11.43;6.35;;;;;;;;;;5048254;28;20031;-60
2023/09/16 10:50:04;;;;;;;8.15;6.00;;;;;;;;;;5051014;28;20111;-60
2023/09/16 10:52:47;;;;;;;8.35;5.55;;;;;;;;;;5049403;28;20055;-58
2023/09/16 10:55:29;;;;;;;6.95;6.00;;;;;;;;;;5051008;28;20032;-59
2023/09/16 10:58:03;;;;;;;8.85;6.35;;;;;;;;;;5050612;28;20075;-59
2023/09/16 11:00:50;;;;;;;8.20;5.72;;;;;;;;;;5050838;28;20423;-60
2023/09/16 11:03:16;;;;;;;8.38;5.20;;;;;;;;;;5031127;28;20048;-59
2023/09/16 11:05:42;;;;;;;7.32;4.95;;;;;;;;;;5042382;28;20473;-58
2023/09/16 11:08:08;;;;;;;7.72;6.25;;;;;;;;;;5049472;28;20033;-61
2023/09/16 11:10:36;;;;;;;9.05;5.60;;;;;;;;;;5051541;28;20037;-61
2023/09/16 11:13:02;;;;;;;5.63;4.60;;;;;;;;;;5048309;28;20489;-54
2023/09/16 11:15:32;;;;;;;8.23;5.80;;;;;;;;;;5051587;28;20025;-57
2023/09/16 11:18:08;;;;;;;7.57;6.25;;;;;;;;;;5050005;28;20132;-55
2023/09/16 11:20:34;;;;;;;7.95;5.03;;;;;;;;;;5051504;28;20075;-55
2023/09/16 11:23:04;;;;;;;7.82;5.40;;;;;;;;;;5049753;28;20029;-57
2023/09/16 11:25:33;;;;;;;7.63;5.47;;;;;;;;;;5051276;28;20060;-56
2023/09/16 11:28:00;;;;;;;6.05;4.82;;;;;;;;;;5049888;28;20511;-56
2023/09/16 11:30:26;;;;;;;7.65;4.80;;;;;;;;;;5049992;28;20029;-57
2023/09/16 11:32:57;;;;;;;9.18;5.75;;;;;;;;;;5051399;28;20036;-58
2023/09/16 11:35:26;;;;;;;6.43;5.00;;;;;;;;;;5050232;28;20505;-56
2023/09/16 11:37:52;;;;;;;9.52;6.15;;;;;;;;;;5049956;28;20416;-56
2023/09/16 11:40:18;;;;;;;6.70;5.30;;;;;;;;;;5047916;28;20038;-57
2023/09/16 11:42:44;;;;;;;9.27;5.20;;;;;;;;;;5048633;28;20105;-57
2023/09/16 11:45:10;;;;;;;5.93;5.25;;;;;;;;;;5047163;28;20032;-57
2023/09/16 11:47:36;;;;;;;7.13;5.55;;;;;;;;;;5029661;28;20037;-57
2023/09/16 11:50:07;;;;;;;8.55;5.80;;;;;;;;;;5038249;28;20411;-58
2023/09/16 11:52:32;;;;;;;6.10;5.50;;;;;;;;;;5049051;28;20082;-55
2023/09/16 11:54:58;;;;;;;6.50;4.95;;;;;;;;;;5044950;28;20032;-56
2023/09/16 11:57:23;;;;;;;6.55;5.25;;;;;;;;;;5050067;28;20033;-58
2023/09/16 11:59:49;;;;;;;7.55;5.60;;;;;;;;;;5046410;28;20033;-57
2023/09/16 12:02:16;;;;;;;7.20;5.90;;;;;;;;;;5049833;28;20112;-58
2023/09/16 12:04:41;;;;;;;5.90;5.28;;;;;;;;;;5048732;28;20044;-57
2023/09/16 12:07:07;;;;;;;5.47;4.97;;;;;;;;;;5047714;28;20032;-60
2023/09/16 12:09:33;;;;;;;6.80;5.38;;;;;;;;;;5050252;28;20037;-58
2023/09/16 12:11:59;;;;;;;7.68;4.95;;;;;;;;;;5049081;28;20103;-57
2023/09/16 12:14:24;;;;;;;5.55;5.05;;;;;;;;;;5050081;28;20477;-58
2023/09/16 12:16:53;;;;;;;6.65;5.95;;;;;;;;;;5047898;28;20045;-57
2023/09/16 12:19:18;;;;;;;7.10;5.30;;;;;;;;;;5035514;28;20457;-58
2023/09/16 12:21:49;;;;;;;6.60;5.88;;;;;;;;;;5052761;28;20025;-58
2023/09/16 12:24:21;;;;;;;8.15;6.30;;;;;;;;;;5053011;28;20032;-57
2023/09/16 12:26:48;;;;;;;6.80;5.72;;;;;;;;;;5054483;28;20373;-58
2023/09/16 12:29:13;;;;;;;6.72;5.53;;;;;;;;;;5052407;28;20082;-58
2023/09/16 12:31:39;;;;;;;6.00;5.40;;;;;;;;;;5053983;28;20115;-57
2023/09/16 12:34:04;;;;;;;8.82;5.90;;;;;;;;;;5053225;28;20032;-58
2023/09/16 12:36:30;;;;;;;6.05;5.40;;;;;;;;;;5052156;28;20025;-58
2023/09/16 12:38:58;;;;;;;6.32;5.30;;;;;;;;;;5034099;28;20041;-56
2023/09/16 12:41:25;;;;;;;6.75;5.70;;;;;;;;;;5034608;28;20037;-59
2023/09/16 12:43:51;;;;;;;6.80;6.10;;;;;;;;;;5034508;28;20088;-56
2023/09/16 12:46:20;;;;;;;7.47;5.80;;;;;;;;;;5033979;28;20494;-58
2023/09/16 12:48:47;;;;;;;6.75;5.30;;;;;;;;;;5050971;28;20052;-58
2023/09/16 12:51:14;;;;;;;6.15;5.55;;;;;;;;;;5050578;28;20033;-59
2023/09/16 12:53:41;;;;;;;7.43;6.03;;;;;;;;;;5054203;28;20025;-59
2023/09/16 12:56:06;;;;;;;7.05;6.00;;;;;;;;;;5051834;28;20032;-57
2023/09/16 12:58:39;;;;;;;8.13;6.20;;;;;;;;;;5053834;28;20043;-55
2023/09/16 13:01:04;;;;;;;6.45;5.75;;;;;;;;;;5053204;28;20036;-57
2023/09/16 13:03:29;;;;;;;8.77;5.57;;;;;;;;;;5053733;28;20051;-56
2023/09/16 13:05:57;;;;;;;9.48;5.75;;;;;;;;;;5053071;28;20029;-57
2023/09/16 13:08:24;;;;;;;6.60;5.97;;;;;;;;;;5052850;28;20033;-57
2023/09/16 13:10:53;;;;;;;7.25;6.05;;;;;;;;;;5053693;28;20056;-54
2023/09/16 13:13:20;;;;;;;8.77;5.95;;;;;;;;;;5051368;28;20650;-56
2023/09/16 13:15:46;;;;;;;7.18;6.47;;;;;;;;;;5043662;28;20037;-56
2023/09/16 13:18:12;;;;;;;6.55;5.85;;;;;;;;;;5033065;28;20065;-57
2023/09/16 13:20:40;;;;;;;6.90;6.20;;;;;;;;;;5034819;28;20442;-56
2023/09/16 13:23:07;;;;;;;7.75;5.80;;;;;;;;;;5041706;28;20160;-55
2023/09/16 13:25:40;;;;;;;6.72;5.95;;;;;;;;;;5047446;28;20050;-59
2023/09/16 13:28:17;;;;;;;7.15;5.70;;;;;;;;;;5052287;28;20025;-60
2023/09/16 13:30:53;;;;;;;6.78;5.82;;;;;;;;;;5050753;28;20029;-55
2023/09/16 13:33:20;;;;;;;6.20;5.60;;;;;;;;;;5052445;28;20036;-56
2023/09/16 13:35:46;;;;;;;8.40;6.05;;;;;;;;;;5052113;28;20051;-55
2023/09/16 13:38:13;;;;;;;8.75;6.38;;;;;;;;;;5051641;28;20098;-56
2023/09/16 13:40:39;;;;;;;6.68;5.95;;;;;;;;;;5049698;28;20432;-57
2023/09/16 13:43:05;;;;;;;7.00;5.78;;;;;;;;;;5042449;28;20492;-58
2023/09/16 13:45:31;;;;;;;7.32;5.72;;;;;;;;;;5044828;28;20351;-57
2023/09/16 13:48:19;;;;;;;6.82;5.93;;;;;;;;;;5053063;28;20032;-55
2023/09/16 13:50:47;;;;;;;6.53;5.80;;;;;;;;;;5043642;28;20033;-56
2023/09/16 13:53:15;;;;;;;6.50;5.80;;;;;;;;;;5048401;28;20052;-57
2023/09/16 13:55:52;;;;;;;7.00;6.30;;;;;;;;;;5052123;28;20017;-56
2023/09/16 13:58:18;;;;;;;7.80;6.13;;;;;;;;;;5052019;28;20052;-55
2023/09/16 14:00:44;;;;;;;7.35;6.65;;;;;;;;;;5052346;28;20401;-57
2023/09/16 14:03:10;;;;;;;7.20;6.38;;;;;;;;;;5051587;28;20036;-57
2023/09/16 14:05:36;;;;;;;7.85;6.25;;;;;;;;;;5052624;28;20032;-57
2023/09/16 14:08:02;;;;;;;13.57;6.97;;;;;;;;;;5047041;28;20025;-57
2023/09/16 14:10:30;;;;;;;7.18;6.47;;;;;;;;;;5035788;28;20026;-56
2023/09/16 14:12:58;;;;;;;8.07;6.50;;;;;;;;;;5051926;28;20029;-57
2023/09/16 14:15:24;;;;;;;7.38;6.55;;;;;;;;;;5051363;28;20077;-55
2023/09/16 14:17:50;;;;;;;6.72;6.10;;;;;;;;;;5044906;28;20041;-58
2023/09/16 14:20:16;;;;;;;8.25;6.28;;;;;;;;;;5044173;28;20037;-52
2023/09/16 14:22:43;;;;;;;7.57;6.63;;;;;;;;;;5052494;28;20108;-56
2023/09/16 14:25:09;;;;;;;11.02;6.55;;;;;;;;;;5041197;28;20381;-58
2023/09/16 14:27:34;;;;;;;6.72;5.82;;;;;;;;;;5049911;28;20529;-58
2023/09/16 14:29:59;;;;;;;7.57;6.00;;;;;;;;;;5046720;28;20033;-57
2023/09/16 14:32:25;;;;;;;10.27;6.10;;;;;;;;;;5050513;28;20128;-59
2023/09/16 14:34:50;;;;;;;6.85;6.05;;;;;;;;;;5052134;28;20032;-56